首页
METAR-TAF:

METAR-TAF

机场 :

维尔纽斯国际机场

维尔纽斯, 立陶宛

纬度: 54-38N, 经度: 025-06E, 海拔: 162米

当前天气观测

该预报发布于16分钟前的01:20 UTC
风速6节,风向东转东南
温度 9°C
湿度 87%
气压 1020 hPa
能见度10公里或以上
阴天层高于2100英尺

METAR: EYVI 180120Z 12006KT 9999 OVC021 09/07 Q1020 R19/0///95 NOSIG

时间: 03:36 (01:36 UTC)

预报

该预报发布于2小时和36分钟前的23:00 UTC
预报有效从18日的 00点(UTC)到 18日的 24点(UTC)
风速10节,风向东转东南
能見度: 5000
阴天层高于1500英尺
轻雾
短暂存在
从 18日的 03点(UTC)到 18日的 09点(UTC)
多云层高于500英尺
短暂存在
从 18日的 11点(UTC)到 18日的 19点(UTC)
多云层高于2500英尺

TAF: EYVI 172300Z 1800/1824 11010KT 5000 BR OVC015 TEMPO 1803/1809 BKN005 TEMPO 1811/1819 BKN025

超过4000个机场的气象观测和天气预报(METAR&TAF报告)。

可查询的气象台以黄色和红色小点在地图上表示。

将鼠标移到小点上方,可查看气象台名称。

然后点击查看天气观测和预报。

如需切换地图:点击带黑十字的绿色按钮放大地图;点击带横线的绿色按钮缩小地图;或者点击绿色箭头查看邻近地区的地图。


METAR-TAF: